sensor_id;sensor_type;location;lat;lon;timestamp;pressure;altitude;pressure_sealevel;temperature;humidity
16461;BME280;8341;42.048;24.650;2024-01-30T00:00:10;99272.56;;;2.34;60.72
16461;BME280;8341;42.048;24.650;2024-01-30T00:02:38;99276.94;;;2.13;61.46
16461;BME280;8341;42.048;24.650;2024-01-30T00:05:05;99279.78;;;2.27;60.04
16461;BME280;8341;42.048;24.650;2024-01-30T00:07:32;99285.53;;;2.25;60.80
16461;BME280;8341;42.048;24.650;2024-01-30T00:09:59;99288.59;;;2.24;60.65
16461;BME280;8341;42.048;24.650;2024-01-30T00:12:26;99286.13;;;2.12;61.90
16461;BME280;8341;42.048;24.650;2024-01-30T00:14:52;99289.19;;;2.10;61.91
16461;BME280;8341;42.048;24.650;2024-01-30T00:17:19;99282.44;;;1.94;61.54
16461;BME280;8341;42.048;24.650;2024-01-30T00:19:47;99290.03;;;1.84;61.90
16461;BME280;8341;42.048;24.650;2024-01-30T00:22:14;99279.84;;;1.71;62.63
16461;BME280;8341;42.048;24.650;2024-01-30T00:24:41;99289.50;;;1.75;62.05
16461;BME280;8341;42.048;24.650;2024-01-30T00:27:08;99287.09;;;1.67;62.33
16461;BME280;8341;42.048;24.650;2024-01-30T00:29:35;99289.88;;;1.74;63.29
16461;BME280;8341;42.048;24.650;2024-01-30T00:32:02;99292.19;;;1.75;63.20
16461;BME280;8341;42.048;24.650;2024-01-30T00:34:28;99293.69;;;1.73;62.30
16461;BME280;8341;42.048;24.650;2024-01-30T00:36:56;99290.66;;;1.74;62.79
16461;BME280;8341;42.048;24.650;2024-01-30T00:39:23;99293.34;;;1.74;64.16
16461;BME280;8341;42.048;24.650;2024-01-30T00:56:41;99303.19;;;2.23;62.23
16461;BME280;8341;42.048;24.650;2024-01-30T00:59:08;99302.47;;;2.26;60.73
16461;BME280;8341;42.048;24.650;2024-01-30T01:01:34;99303.09;;;2.16;61.39
16461;BME280;8341;42.048;24.650;2024-01-30T01:04:01;99285.22;;;2.01;62.13
16461;BME280;8341;42.048;24.650;2024-01-30T01:06:28;99289.47;;;2.02;62.77
16461;BME280;8341;42.048;24.650;2024-01-30T01:08:55;99291.66;;;1.93;63.14
16461;BME280;8341;42.048;24.650;2024-01-30T01:11:22;99288.84;;;1.82;63.24
16461;BME280;8341;42.048;24.650;2024-01-30T01:13:50;99283.47;;;1.85;62.87
16461;BME280;8341;42.048;24.650;2024-01-30T01:16:17;99288.78;;;1.78;62.87
16461;BME280;8341;42.048;24.650;2024-01-30T01:18:43;99285.63;;;1.73;62.99
16461;BME280;8341;42.048;24.650;2024-01-30T01:21:10;99283.94;;;1.61;63.43
16461;BME280;8341;42.048;24.650;2024-01-30T01:23:37;99283.97;;;1.65;63.24
16461;BME280;8341;42.048;24.650;2024-01-30T01:26:04;99282.06;;;1.65;63.23
16461;BME280;8341;42.048;24.650;2024-01-30T01:28:31;99277.94;;;1.71;64.47
16461;BME280;8341;42.048;24.650;2024-01-30T01:30:59;99278.56;;;1.61;65.58
16461;BME280;8341;42.048;24.650;2024-01-30T01:33:30;99269.00;;;1.67;65.65
16461;BME280;8341;42.048;24.650;2024-01-30T01:35:58;99264.72;;;1.63;65.52
16461;BME280;8341;42.048;24.650;2024-01-30T01:38:25;99264.56;;;1.52;66.25
16461;BME280;8341;42.048;24.650;2024-01-30T01:40:51;99269.06;;;1.45;66.74
16461;BME280;8341;42.048;24.650;2024-01-30T01:43:18;99277.97;;;1.22;67.66
16461;BME280;8341;42.048;24.650;2024-01-30T01:45:45;99270.78;;;1.30;66.74
16461;BME280;8341;42.048;24.650;2024-01-30T01:48:13;99263.66;;;1.41;66.10
16461;BME280;8341;42.048;24.650;2024-01-30T01:50:41;99269.38;;;1.40;66.43
16461;BME280;8341;42.048;24.650;2024-01-30T01:53:09;99267.38;;;1.33;67.17
16461;BME280;8341;42.048;24.650;2024-01-30T01:55:37;99270.31;;;1.24;67.19
16461;BME280;8341;42.048;24.650;2024-01-30T01:58:04;99265.00;;;1.28;67.24
16461;BME280;8341;42.048;24.650;2024-01-30T02:00:31;99271.25;;;1.36;67.49
16461;BME280;8341;42.048;24.650;2024-01-30T02:02:58;99267.63;;;1.24;68.15
16461;BME280;8341;42.048;24.650;2024-01-30T02:05:27;99273.06;;;1.28;67.46
16461;BME280;8341;42.048;24.650;2024-01-30T02:07:54;99275.75;;;1.28;67.51
16461;BME280;8341;42.048;24.650;2024-01-30T02:10:22;99266.81;;;1.20;68.37
16461;BME280;8341;42.048;24.650;2024-01-30T02:12:49;99268.00;;;1.00;68.62
16461;BME280;8341;42.048;24.650;2024-01-30T02:15:16;99268.59;;;1.13;68.14
16461;BME280;8341;42.048;24.650;2024-01-30T02:17:43;99265.66;;;1.21;67.48
16461;BME280;8341;42.048;24.650;2024-01-30T02:20:10;99270.91;;;1.14;68.07
16461;BME280;8341;42.048;24.650;2024-01-30T02:22:40;99269.78;;;1.15;68.07
16461;BME280;8341;42.048;24.650;2024-01-30T02:25:07;99269.00;;;1.15;67.37
16461;BME280;8341;42.048;24.650;2024-01-30T02:27:34;99263.34;;;1.20;66.98
16461;BME280;8341;42.048;24.650;2024-01-30T02:30:01;99264.13;;;1.20;66.22
16461;BME280;8341;42.048;24.650;2024-01-30T02:32:28;99260.28;;;1.21;66.21
16461;BME280;8341;42.048;24.650;2024-01-30T02:34:55;99272.75;;;1.33;65.20
16461;BME280;8341;42.048;24.650;2024-01-30T02:37:21;99272.03;;;1.36;65.07
16461;BME280;8341;42.048;24.650;2024-01-30T02:39:50;99278.13;;;1.33;65.33
16461;BME280;8341;42.048;24.650;2024-01-30T02:42:16;99278.59;;;1.39;66.54
16461;BME280;8341;42.048;24.650;2024-01-30T02:44:43;99275.94;;;1.42;67.61
16461;BME280;8341;42.048;24.650;2024-01-30T02:47:10;99266.44;;;1.48;68.34
16461;BME280;8341;42.048;24.650;2024-01-30T02:49:37;99265.28;;;1.49;68.21
16461;BME280;8341;42.048;24.650;2024-01-30T02:52:04;99271.34;;;1.43;68.71
16461;BME280;8341;42.048;24.650;2024-01-30T02:54:30;99274.34;;;1.38;69.69
16461;BME280;8341;42.048;24.650;2024-01-30T02:56:59;99264.94;;;1.51;69.04
16461;BME280;8341;42.048;24.650;2024-01-30T02:59:25;99277.22;;;1.48;69.03
16461;BME280;8341;42.048;24.650;2024-01-30T03:01:52;99271.13;;;1.51;68.56
16461;BME280;8341;42.048;24.650;2024-01-30T03:04:19;99270.50;;;1.65;67.64
16461;BME280;8341;42.048;24.650;2024-01-30T03:06:46;99272.47;;;1.68;67.48
16461;BME280;8341;42.048;24.650;2024-01-30T03:09:13;99275.50;;;1.63;67.70
16461;BME280;8341;42.048;24.650;2024-01-30T03:11:40;99278.44;;;1.54;67.80
16461;BME280;8341;42.048;24.650;2024-01-30T03:14:08;99280.88;;;1.63;66.48
16461;BME280;8341;42.048;24.650;2024-01-30T03:16:36;99288.16;;;1.62;67.02
16461;BME280;8341;42.048;24.650;2024-01-30T03:19:03;99281.59;;;1.11;68.74
16461;BME280;8341;42.048;24.650;2024-01-30T03:21:30;99278.53;;;0.67;71.65
16461;BME280;8341;42.048;24.650;2024-01-30T03:23:57;99283.44;;;0.61;71.99
16461;BME280;8341;42.048;24.650;2024-01-30T03:26:24;99285.19;;;0.54;73.25
16461;BME280;8341;42.048;24.650;2024-01-30T03:28:51;99273.50;;;0.85;72.50
16461;BME280;8341;42.048;24.650;2024-01-30T03:31:19;99275.34;;;1.03;72.52
16461;BME280;8341;42.048;24.650;2024-01-30T03:33:46;99275.91;;;1.16;71.96
16461;BME280;8341;42.048;24.650;2024-01-30T03:36:14;99277.06;;;1.15;72.32
16461;BME280;8341;42.048;24.650;2024-01-30T03:38:41;99267.94;;;1.19;72.54
16461;BME280;8341;42.048;24.650;2024-01-30T03:41:08;99277.97;;;1.22;72.48
16461;BME280;8341;42.048;24.650;2024-01-30T03:43:35;99273.47;;;1.30;72.27
16461;BME280;8341;42.048;24.650;2024-01-30T03:46:03;99279.16;;;1.25;72.54
16461;BME280;8341;42.048;24.650;2024-01-30T03:48:31;99276.16;;;1.30;71.89
16461;BME280;8341;42.048;24.650;2024-01-30T03:50:58;99276.47;;;1.25;72.01
16461;BME280;8341;42.048;24.650;2024-01-30T03:53:25;99281.44;;;1.23;72.99
16461;BME280;8341;42.048;24.650;2024-01-30T03:55:51;99280.38;;;1.31;71.04
16461;BME280;8341;42.048;24.650;2024-01-30T03:58:18;99282.66;;;1.29;70.50
16461;BME280;8341;42.048;24.650;2024-01-30T04:00:45;99276.91;;;1.04;70.91
16461;BME280;8341;42.048;24.650;2024-01-30T04:03:11;99283.75;;;0.56;73.29
16461;BME280;8341;42.048;24.650;2024-01-30T04:05:40;99273.44;;;0.39;73.92
16461;BME280;8341;42.048;24.650;2024-01-30T04:08:07;99276.91;;;0.21;74.63
16461;BME280;8341;42.048;24.650;2024-01-30T04:10:33;99274.84;;;-0.05;75.37
16461;BME280;8341;42.048;24.650;2024-01-30T04:13:00;99279.44;;;-0.06;76.77
16461;BME280;8341;42.048;24.650;2024-01-30T04:15:27;99282.75;;;0.26;74.68
16461;BME280;8341;42.048;24.650;2024-01-30T04:17:57;99285.44;;;0.45;74.04
16461;BME280;8341;42.048;24.650;2024-01-30T04:20:24;99296.22;;;0.68;74.49
16461;BME280;8341;42.048;24.650;2024-01-30T04:22:52;99282.69;;;0.84;73.82
16461;BME280;8341;42.048;24.650;2024-01-30T04:25:19;99285.75;;;0.82;74.28
16461;BME280;8341;42.048;24.650;2024-01-30T04:27:46;99292.00;;;0.90;74.75
16461;BME280;8341;42.048;24.650;2024-01-30T04:30:13;99287.16;;;0.99;74.47
16461;BME280;8341;42.048;24.650;2024-01-30T04:32:39;99274.56;;;1.03;74.15
16461;BME280;8341;42.048;24.650;2024-01-30T04:35:07;99283.47;;;1.07;74.11
16461;BME280;8341;42.048;24.650;2024-01-30T04:37:33;99285.66;;;1.24;72.91
16461;BME280;8341;42.048;24.650;2024-01-30T04:40:02;99281.13;;;1.28;72.30
16461;BME280;8341;42.048;24.650;2024-01-30T04:42:29;99292.41;;;1.14;72.48
16461;BME280;8341;42.048;24.650;2024-01-30T04:44:56;99288.75;;;1.26;71.57
16461;BME280;8341;42.048;24.650;2024-01-30T04:47:22;99299.56;;;1.30;71.05
16461;BME280;8341;42.048;24.650;2024-01-30T04:49:51;99298.84;;;1.33;71.05
16461;BME280;8341;42.048;24.650;2024-01-30T04:52:18;99298.06;;;1.32;71.41
16461;BME280;8341;42.048;24.650;2024-01-30T04:54:44;99308.09;;;1.35;71.30
16461;BME280;8341;42.048;24.650;2024-01-30T04:57:12;99312.78;;;1.38;71.19
16461;BME280;8341;42.048;24.650;2024-01-30T04:59:39;99312.81;;;1.42;71.18
16461;BME280;8341;42.048;24.650;2024-01-30T05:02:06;99306.81;;;1.52;71.01
16461;BME280;8341;42.048;24.650;2024-01-30T05:04:33;99317.63;;;1.55;70.92
16461;BME280;8341;42.048;24.650;2024-01-30T05:07:00;99321.09;;;1.56;70.98
16461;BME280;8341;42.048;24.650;2024-01-30T05:09:27;99309.06;;;1.46;71.57
16461;BME280;8341;42.048;24.650;2024-01-30T05:11:53;99319.06;;;1.49;71.73
16461;BME280;8341;42.048;24.650;2024-01-30T05:14:22;99322.94;;;1.52;72.04
16461;BME280;8341;42.048;24.650;2024-01-30T05:16:48;99314.75;;;1.41;72.58
16461;BME280;8341;42.048;24.650;2024-01-30T05:19:15;99313.69;;;1.49;72.21
16461;BME280;8341;42.048;24.650;2024-01-30T05:21:42;99312.25;;;1.55;72.70
16461;BME280;8341;42.048;24.650;2024-01-30T05:24:10;99315.25;;;1.50;73.63
16461;BME280;8341;42.048;24.650;2024-01-30T05:26:37;99310.09;;;1.38;74.60
16461;BME280;8341;42.048;24.650;2024-01-30T05:29:05;99315.63;;;1.49;74.25
16461;BME280;8341;42.048;24.650;2024-01-30T05:31:33;99317.00;;;1.39;73.72
16461;BME280;8341;42.048;24.650;2024-01-30T05:34:00;99309.88;;;1.50;73.13
16461;BME280;8341;42.048;24.650;2024-01-30T05:36:27;99310.81;;;1.61;72.17
16461;BME280;8341;42.048;24.650;2024-01-30T05:38:56;99311.63;;;1.65;71.69
16461;BME280;8341;42.048;24.650;2024-01-30T05:41:23;99315.56;;;1.71;71.01
16461;BME280;8341;42.048;24.650;2024-01-30T05:43:49;99322.81;;;1.67;70.51
16461;BME280;8341;42.048;24.650;2024-01-30T05:46:16;99321.78;;;1.75;70.23
16461;BME280;8341;42.048;24.650;2024-01-30T05:48:45;99321.31;;;1.70;71.27
16461;BME280;8341;42.048;24.650;2024-01-30T05:51:11;99322.63;;;1.79;70.46
16461;BME280;8341;42.048;24.650;2024-01-30T05:53:38;99318.38;;;1.78;70.70
16461;BME280;8341;42.048;24.650;2024-01-30T05:56:06;99320.59;;;1.73;70.82
16461;BME280;8341;42.048;24.650;2024-01-30T05:58:32;99316.78;;;1.77;70.68
16461;BME280;8341;42.048;24.650;2024-01-30T06:00:59;99319.63;;;1.84;69.97
16461;BME280;8341;42.048;24.650;2024-01-30T06:03:26;99315.75;;;1.85;70.06
16461;BME280;8341;42.048;24.650;2024-01-30T06:05:54;99315.72;;;1.82;69.54
16461;BME280;8341;42.048;24.650;2024-01-30T06:08:21;99318.59;;;1.96;69.11
16461;BME280;8341;42.048;24.650;2024-01-30T06:10:48;99321.81;;;2.05;68.70
16461;BME280;8341;42.048;24.650;2024-01-30T06:13:14;99319.06;;;2.02;68.81
16461;BME280;8341;42.048;24.650;2024-01-30T06:15:41;99316.69;;;1.97;68.92
16461;BME280;8341;42.048;24.650;2024-01-30T06:18:08;99320.47;;;1.92;69.26
16461;BME280;8341;42.048;24.650;2024-01-30T06:20:35;99323.19;;;1.96;69.02
16461;BME280;8341;42.048;24.650;2024-01-30T06:23:03;99325.09;;;1.92;69.29
16461;BME280;8341;42.048;24.650;2024-01-30T06:25:30;99323.53;;;1.90;68.89
16461;BME280;8341;42.048;24.650;2024-01-30T06:27:57;99322.75;;;1.90;68.76
16461;BME280;8341;42.048;24.650;2024-01-30T06:30:24;99313.31;;;2.03;69.08
16461;BME280;8341;42.048;24.650;2024-01-30T06:32:50;99323.00;;;2.08;68.76
16461;BME280;8341;42.048;24.650;2024-01-30T06:35:17;99320.41;;;2.15;67.89
16461;BME280;8341;42.048;24.650;2024-01-30T06:37:44;99323.91;;;2.19;67.40
16461;BME280;8341;42.048;24.650;2024-01-30T06:40:13;99326.72;;;2.29;67.13
16461;BME280;8341;42.048;24.650;2024-01-30T06:42:40;99327.56;;;2.33;66.27
16461;BME280;8341;42.048;24.650;2024-01-30T06:45:07;99326.06;;;2.36;65.80
16461;BME280;8341;42.048;24.650;2024-01-30T06:47:34;99333.75;;;2.37;66.22
16461;BME280;8341;42.048;24.650;2024-01-30T06:50:01;99334.88;;;2.36;65.89
16461;BME280;8341;42.048;24.650;2024-01-30T06:52:28;99341.81;;;2.37;65.86
16461;BME280;8341;42.048;24.650;2024-01-30T06:54:55;99340.41;;;2.47;65.68
16461;BME280;8341;42.048;24.650;2024-01-30T06:57:23;99336.25;;;2.53;65.89
16461;BME280;8341;42.048;24.650;2024-01-30T06:59:52;99337.31;;;2.45;65.76
16461;BME280;8341;42.048;24.650;2024-01-30T07:02:21;99340.31;;;2.40;64.71
16461;BME280;8341;42.048;24.650;2024-01-30T07:04:48;99333.56;;;2.53;65.27
16461;BME280;8341;42.048;24.650;2024-01-30T07:07:15;99344.44;;;2.64;64.62
16461;BME280;8341;42.048;24.650;2024-01-30T07:09:42;99345.63;;;2.66;65.05
16461;BME280;8341;42.048;24.650;2024-01-30T07:12:09;99339.00;;;2.60;65.35
16461;BME280;8341;42.048;24.650;2024-01-30T07:14:37;99351.81;;;2.67;65.05
16461;BME280;8341;42.048;24.650;2024-01-30T07:17:04;99341.16;;;2.77;64.20
16461;BME280;8341;42.048;24.650;2024-01-30T07:19:31;99342.00;;;2.85;64.99
16461;BME280;8341;42.048;24.650;2024-01-30T07:21:58;99349.31;;;2.88;65.08
16461;BME280;8341;42.048;24.650;2024-01-30T07:24:25;99340.16;;;2.96;65.03
16461;BME280;8341;42.048;24.650;2024-01-30T07:26:52;99354.03;;;2.98;65.25
16461;BME280;8341;42.048;24.650;2024-01-30T07:29:19;99350.16;;;2.95;65.12
16461;BME280;8341;42.048;24.650;2024-01-30T07:31:48;99347.19;;;3.04;65.21
16461;BME280;8341;42.048;24.650;2024-01-30T07:34:15;99353.81;;;3.13;63.49
16461;BME280;8341;42.048;24.650;2024-01-30T07:36:42;99343.50;;;3.23;62.96
16461;BME280;8341;42.048;24.650;2024-01-30T07:39:09;99351.22;;;3.21;63.00
16461;BME280;8341;42.048;24.650;2024-01-30T07:41:36;99351.31;;;3.31;62.35
16461;BME280;8341;42.048;24.650;2024-01-30T07:44:03;99358.28;;;3.36;60.72
16461;BME280;8341;42.048;24.650;2024-01-30T07:46:30;99355.19;;;3.34;59.76
16461;BME280;8341;42.048;24.650;2024-01-30T07:48:58;99354.41;;;3.37;59.74
16461;BME280;8341;42.048;24.650;2024-01-30T07:51:25;99356.72;;;3.35;59.47
16461;BME280;8341;42.048;24.650;2024-01-30T07:53:53;99355.22;;;3.41;59.09
16461;BME280;8341;42.048;24.650;2024-01-30T07:56:20;99361.38;;;3.38;58.32
16461;BME280;8341;42.048;24.650;2024-01-30T07:58:47;99358.38;;;3.50;57.79
16461;BME280;8341;42.048;24.650;2024-01-30T08:01:14;99350.41;;;3.64;57.88
16461;BME280;8341;42.048;24.650;2024-01-30T08:03:41;99361.59;;;3.66;57.71
16461;BME280;8341;42.048;24.650;2024-01-30T08:06:09;99350.50;;;3.74;56.98
16461;BME280;8341;42.048;24.650;2024-01-30T08:08:36;99357.88;;;3.85;57.25
16461;BME280;8341;42.048;24.650;2024-01-30T08:11:04;99342.81;;;3.84;55.92
16461;BME280;8341;42.048;24.650;2024-01-30T08:13:30;99349.03;;;3.88;55.97
16461;BME280;8341;42.048;24.650;2024-01-30T08:15:57;99357.94;;;3.95;55.71
16461;BME280;8341;42.048;24.650;2024-01-30T08:18:24;99352.53;;;3.92;56.18
16461;BME280;8341;42.048;24.650;2024-01-30T08:20:51;99353.34;;;3.99;55.70
16461;BME280;8341;42.048;24.650;2024-01-30T08:23:19;99342.63;;;4.17;55.22
16461;BME280;8341;42.048;24.650;2024-01-30T08:25:46;99348.06;;;4.24;54.57
16461;BME280;8341;42.048;24.650;2024-01-30T08:28:13;99350.03;;;4.34;54.95
16461;BME280;8341;42.048;24.650;2024-01-30T08:30:40;99354.28;;;4.28;53.97
16461;BME280;8341;42.048;24.650;2024-01-30T08:33:07;99341.19;;;4.33;53.27
16461;BME280;8341;42.048;24.650;2024-01-30T08:35:34;99349.22;;;4.23;53.91
16461;BME280;8341;42.048;24.650;2024-01-30T08:38:00;99353.53;;;4.31;52.87
16461;BME280;8341;42.048;24.650;2024-01-30T08:40:30;99358.88;;;4.20;53.23
16461;BME280;8341;42.048;24.650;2024-01-30T08:42:56;99347.31;;;4.27;53.09
16461;BME280;8341;42.048;24.650;2024-01-30T08:45:23;99345.78;;;4.29;53.42
16461;BME280;8341;42.048;24.650;2024-01-30T08:47:50;99346.22;;;4.42;53.73
16461;BME280;8341;42.048;24.650;2024-01-30T08:50:17;99351.25;;;4.47;52.90
16461;BME280;8341;42.048;24.650;2024-01-30T08:52:44;99345.88;;;4.51;53.44
16461;BME280;8341;42.048;24.650;2024-01-30T08:55:10;99343.56;;;4.46;52.59
16461;BME280;8341;42.048;24.650;2024-01-30T08:57:39;99344.38;;;4.57;52.07
16461;BME280;8341;42.048;24.650;2024-01-30T09:00:06;99342.91;;;4.77;51.91
16461;BME280;8341;42.048;24.650;2024-01-30T09:02:35;99341.75;;;4.81;51.73
16461;BME280;8341;42.048;24.650;2024-01-30T09:05:01;99352.59;;;4.99;51.20
16461;BME280;8341;42.048;24.650;2024-01-30T09:07:28;99347.56;;;5.01;50.42
16461;BME280;8341;42.048;24.650;2024-01-30T09:09:55;99352.59;;;5.06;50.28
16461;BME280;8341;42.048;24.650;2024-01-30T09:12:22;99352.22;;;5.04;50.66
16461;BME280;8341;42.048;24.650;2024-01-30T09:14:50;99344.88;;;5.12;49.68
16461;BME280;8341;42.048;24.650;2024-01-30T09:17:16;99342.56;;;5.10;49.99
16461;BME280;8341;42.048;24.650;2024-01-30T09:19:43;99349.16;;;5.20;49.54
16461;BME280;8341;42.048;24.650;2024-01-30T09:22:10;99345.31;;;5.28;49.98
16461;BME280;8341;42.048;24.650;2024-01-30T09:24:37;99344.53;;;5.27;48.58
16461;BME280;8341;42.048;24.650;2024-01-30T09:27:04;99349.94;;;5.27;48.68
16461;BME280;8341;42.048;24.650;2024-01-30T09:29:31;99347.59;;;5.29;48.00
16461;BME280;8341;42.048;24.650;2024-01-30T09:32:01;99344.47;;;4.85;47.75
16461;BME280;8341;42.048;24.650;2024-01-30T09:34:27;99339.09;;;5.02;48.48
16461;BME280;8341;42.048;24.650;2024-01-30T09:36:54;99335.22;;;5.00;48.08
16461;BME280;8341;42.048;24.650;2024-01-30T09:39:21;99331.38;;;5.04;49.13
16461;BME280;8341;42.048;24.650;2024-01-30T09:41:49;99328.63;;;5.01;48.35
16461;BME280;8341;42.048;24.650;2024-01-30T09:44:23;99323.59;;;4.85;47.55
16461;BME280;8341;42.048;24.650;2024-01-30T09:46:51;99313.53;;;4.72;49.67
16461;BME280;8341;42.048;24.650;2024-01-30T09:49:20;99317.00;;;4.83;49.53
16461;BME280;8341;42.048;24.650;2024-01-30T09:51:48;99316.28;;;4.93;49.44
16461;BME280;8341;42.048;24.650;2024-01-30T09:54:15;99310.88;;;5.00;49.34
16461;BME280;8341;42.048;24.650;2024-01-30T09:56:42;99311.69;;;5.25;49.22
16461;BME280;8341;42.048;24.650;2024-01-30T09:59:09;99298.56;;;5.41;48.38
16461;BME280;8341;42.048;24.650;2024-01-30T10:01:36;99303.97;;;5.52;48.46
16461;BME280;8341;42.048;24.650;2024-01-30T10:04:04;99310.50;;;5.61;47.97
16461;BME280;8341;42.048;24.650;2024-01-30T10:06:32;99309.72;;;5.79;47.43
16461;BME280;8341;42.048;24.650;2024-01-30T10:08:59;99305.09;;;5.72;47.03
16461;BME280;8341;42.048;24.650;2024-01-30T10:11:26;99303.53;;;5.60;46.79
16461;BME280;8341;42.048;24.650;2024-01-30T10:13:54;99300.06;;;5.74;46.91
16461;BME280;8341;42.048;24.650;2024-01-30T10:16:20;99308.94;;;5.89;46.59
16461;BME280;8341;42.048;24.650;2024-01-30T10:18:47;99309.31;;;5.91;46.89
16461;BME280;8341;42.048;24.650;2024-01-30T10:21:14;99302.31;;;6.04;46.07
16461;BME280;8341;42.048;24.650;2024-01-30T10:23:43;99304.25;;;6.10;45.62
16461;BME280;8341;42.048;24.650;2024-01-30T10:26:10;99299.66;;;5.93;46.05
16461;BME280;8341;42.048;24.650;2024-01-30T10:28:37;99299.25;;;6.05;45.50
16461;BME280;8341;42.048;24.650;2024-01-30T10:31:04;99296.88;;;6.18;45.33
16461;BME280;8341;42.048;24.650;2024-01-30T10:33:31;99295.31;;;6.17;45.37
16461;BME280;8341;42.048;24.650;2024-01-30T10:36:00;99297.66;;;6.11;45.99
16461;BME280;8341;42.048;24.650;2024-01-30T10:38:29;99291.09;;;6.16;45.29
16461;BME280;8341;42.048;24.650;2024-01-30T10:40:58;99304.31;;;5.86;44.08
16461;BME280;8341;42.048;24.650;2024-01-30T10:43:31;99296.97;;;5.61;45.80
16461;BME280;8341;42.048;24.650;2024-01-30T10:46:04;99291.56;;;5.68;45.33
16461;BME280;8341;42.048;24.650;2024-01-30T10:48:36;99296.16;;;5.79;45.63
16461;BME280;8341;42.048;24.650;2024-01-30T10:51:05;99301.59;;;5.93;45.79
16461;BME280;8341;42.048;24.650;2024-01-30T10:53:33;99291.88;;;6.09;45.09
16461;BME280;8341;42.048;24.650;2024-01-30T10:56:03;99289.56;;;6.08;45.55
16461;BME280;8341;42.048;24.650;2024-01-30T10:58:31;99291.16;;;5.98;44.39
16461;BME280;8341;42.048;24.650;2024-01-30T11:00:58;99288.03;;;5.96;44.24
16461;BME280;8341;42.048;24.650;2024-01-30T11:03:25;99296.59;;;5.88;44.40
16461;BME280;8341;42.048;24.650;2024-01-30T11:05:52;99296.97;;;5.68;44.83
16461;BME280;8341;42.048;24.650;2024-01-30T11:08:25;99295.84;;;5.31;45.27
16461;BME280;8341;42.048;24.650;2024-01-30T11:10:55;99286.16;;;5.40;45.13
16461;BME280;8341;42.048;24.650;2024-01-30T11:13:26;99291.97;;;5.25;46.23
16461;BME280;8341;42.048;24.650;2024-01-30T11:15:53;99284.59;;;5.11;45.97
16461;BME280;8341;42.048;24.650;2024-01-30T11:18:23;99280.38;;;5.28;45.72
16461;BME280;8341;42.048;24.650;2024-01-30T11:20:50;99278.84;;;5.34;46.89
16461;BME280;8341;42.048;24.650;2024-01-30T11:23:17;99286.94;;;5.37;46.03
16461;BME280;8341;42.048;24.650;2024-01-30T11:25:44;99276.50;;;5.50;45.60
16461;BME280;8341;42.048;24.650;2024-01-30T11:28:13;99276.09;;;5.62;45.83
16461;BME280;8341;42.048;24.650;2024-01-30T11:30:43;99275.34;;;5.47;45.07
16461;BME280;8341;42.048;24.650;2024-01-30T11:33:11;99280.75;;;5.30;46.32
16461;BME280;8341;42.048;24.650;2024-01-30T11:35:40;99270.72;;;5.23;46.42
16461;BME280;8341;42.048;24.650;2024-01-30T11:38:08;99273.44;;;5.23;46.20
16461;BME280;8341;42.048;24.650;2024-01-30T11:40:36;99261.81;;;5.19;46.89
16461;BME280;8341;42.048;24.650;2024-01-30T11:43:04;99266.47;;;4.90;47.27
16461;BME280;8341;42.048;24.650;2024-01-30T11:45:31;99261.81;;;5.01;47.38
16461;BME280;8341;42.048;24.650;2024-01-30T11:48:00;99252.94;;;5.04;48.86
16461;BME280;8341;42.048;24.650;2024-01-30T11:50:29;99258.72;;;5.24;47.63
16461;BME280;8341;42.048;24.650;2024-01-30T11:52:56;99261.84;;;5.26;47.39
16461;BME280;8341;42.048;24.650;2024-01-30T11:55:23;99255.66;;;5.33;47.39
16461;BME280;8341;42.048;24.650;2024-01-30T11:57:50;99254.88;;;5.46;47.90
16461;BME280;8341;42.048;24.650;2024-01-30T12:00:18;99247.13;;;5.48;48.18
16461;BME280;8341;42.048;24.650;2024-01-30T12:02:49;99238.22;;;5.58;47.91
16461;BME280;8341;42.048;24.650;2024-01-30T12:05:19;99228.50;;;5.72;47.67
16461;BME280;8341;42.048;24.650;2024-01-30T12:07:46;99226.97;;;5.85;46.94
16461;BME280;8341;42.048;24.650;2024-01-30T12:10:13;99221.88;;;5.94;46.58
16461;BME280;8341;42.048;24.650;2024-01-30T12:12:41;99220.72;;;5.98;45.76
16461;BME280;8341;42.048;24.650;2024-01-30T12:15:09;99217.63;;;6.00;46.25
16461;BME280;8341;42.048;24.650;2024-01-30T12:17:36;99216.06;;;6.02;45.85
16461;BME280;8341;42.048;24.650;2024-01-30T12:20:04;99205.28;;;5.92;46.42
16461;BME280;8341;42.048;24.650;2024-01-30T12:22:35;99199.03;;;6.02;46.19
16461;BME280;8341;42.048;24.650;2024-01-30T12:25:04;99201.28;;;6.21;45.83
16461;BME280;8341;42.048;24.650;2024-01-30T12:27:31;99192.75;;;6.26;45.45
16461;BME280;8341;42.048;24.650;2024-01-30T12:29:58;99189.31;;;6.15;44.32
16461;BME280;8341;42.048;24.650;2024-01-30T12:32:25;99189.72;;;6.10;44.13
16461;BME280;8341;42.048;24.650;2024-01-30T12:34:55;99178.72;;;6.35;45.33
16461;BME280;8341;42.048;24.650;2024-01-30T12:37:21;99168.66;;;6.35;45.23
16461;BME280;8341;42.048;24.650;2024-01-30T12:39:51;99184.84;;;6.49;44.95
16461;BME280;8341;42.048;24.650;2024-01-30T12:42:19;99186.34;;;6.57;44.29
16461;BME280;8341;42.048;24.650;2024-01-30T12:44:46;99187.50;;;6.56;43.79
16461;BME280;8341;42.048;24.650;2024-01-30T12:47:13;99190.94;;;6.67;44.42
16461;BME280;8341;42.048;24.650;2024-01-30T12:49:41;99186.97;;;6.75;43.08
16461;BME280;8341;42.048;24.650;2024-01-30T12:52:08;99176.19;;;6.68;43.21
16461;BME280;8341;42.048;24.650;2024-01-30T12:54:35;99177.50;;;6.46;43.43
16461;BME280;8341;42.048;24.650;2024-01-30T12:57:04;99178.00;;;6.34;44.01
16461;BME280;8341;42.048;24.650;2024-01-30T12:59:30;99174.91;;;6.28;43.31
16461;BME280;8341;42.048;24.650;2024-01-30T13:01:59;99168.66;;;6.35;44.80
16461;BME280;8341;42.048;24.650;2024-01-30T13:04:27;99169.03;;;6.44;44.92
16461;BME280;8341;42.048;24.650;2024-01-30T13:06:54;99172.94;;;6.32;44.28
16461;BME280;8341;42.048;24.650;2024-01-30T13:09:21;99177.25;;;6.26;44.92
16461;BME280;8341;42.048;24.650;2024-01-30T13:11:47;99166.44;;;6.23;44.12
16461;BME280;8341;42.048;24.650;2024-01-30T13:14:16;99170.81;;;6.03;44.12
16461;BME280;8341;42.048;24.650;2024-01-30T13:16:43;99170.75;;;6.10;45.00
16461;BME280;8341;42.048;24.650;2024-01-30T13:19:09;99172.00;;;5.81;44.38
16461;BME280;8341;42.048;24.650;2024-01-30T13:21:36;99169.78;;;5.58;44.94
16461;BME280;8341;42.048;24.650;2024-01-30T13:24:04;99164.38;;;5.54;44.98